createdAt,value
2022-12-12T00:01:29.069Z,13.30
2022-12-12T00:03:56.999Z,12.40
2022-12-12T00:06:25.219Z,13.30
2022-12-12T00:08:53.779Z,11.10
2022-12-12T00:11:22.037Z,14.13
2022-12-12T00:13:50.007Z,13.83
2022-12-12T00:16:19.528Z,13.37
2022-12-12T00:18:48.065Z,15.03
2022-12-12T00:21:17.259Z,13.60
2022-12-12T00:23:45.402Z,12.50
2022-12-12T00:26:16.365Z,13.63
2022-12-12T00:28:44.841Z,12.73
2022-12-12T00:31:13.034Z,14.30
2022-12-12T00:33:43.841Z,14.20
2022-12-12T00:36:11.890Z,13.27
2022-12-12T00:38:39.821Z,12.70
2022-12-12T00:41:07.769Z,12.67
2022-12-12T00:43:35.986Z,14.07
2022-12-12T00:46:04.077Z,12.93
2022-12-12T00:48:32.479Z,11.47
2022-12-12T00:51:06.521Z,12.73
2022-12-12T00:53:37.358Z,10.47
2022-12-12T00:56:05.420Z,12.40
2022-12-12T00:58:33.901Z,14.37
2022-12-12T01:01:06.689Z,11.77
2022-12-12T01:03:35.065Z,12.87
2022-12-12T01:06:04.680Z,12.07
2022-12-12T01:08:32.666Z,12.10
2022-12-12T01:11:00.660Z,12.17
2022-12-12T01:13:28.846Z,12.23
2022-12-12T01:15:56.809Z,10.83
2022-12-12T01:18:24.873Z,12.17
2022-12-12T01:20:52.917Z,12.33
2022-12-12T01:23:22.433Z,13.07
2022-12-12T01:25:50.446Z,12.63
2022-12-12T01:28:18.544Z,9.73
2022-12-12T01:30:46.634Z,12.23
2022-12-12T01:33:14.675Z,12.00
2022-12-12T01:35:42.631Z,11.57
2022-12-12T01:38:10.553Z,11.87
2022-12-12T01:40:39.937Z,11.90
2022-12-12T01:43:10.641Z,10.83
2022-12-12T01:46:17.509Z,9.93
2022-12-12T01:48:47.372Z,10.63
2022-12-12T01:51:16.896Z,10.90
2022-12-12T01:53:46.037Z,11.23
2022-12-12T01:56:16.606Z,10.13
2022-12-12T01:58:45.984Z,9.47
2022-12-12T02:01:14.113Z,10.53
2022-12-12T02:03:43.002Z,10.60
2022-12-12T02:06:12.886Z,10.00
2022-12-12T02:08:41.206Z,9.10
2022-12-12T02:11:09.141Z,10.73
2022-12-12T02:13:38.553Z,9.83
2022-12-12T02:16:09.645Z,10.10
2022-12-12T02:18:41.763Z,10.67
2022-12-12T02:21:15.778Z,9.70
2022-12-12T02:23:58.644Z,10.03
2022-12-12T02:26:45.490Z,10.57
2022-12-12T02:29:26.058Z,10.53
2022-12-12T02:31:58.371Z,10.77
2022-12-12T02:34:28.156Z,12.20
2022-12-12T02:37:02.149Z,10.40
2022-12-12T02:39:35.270Z,9.60
2022-12-12T02:42:06.145Z,10.97
2022-12-12T02:44:35.848Z,11.37
2022-12-12T02:47:08.982Z,11.37
2022-12-12T02:49:38.528Z,10.43
2022-12-12T02:52:07.661Z,11.30
2022-12-12T02:54:35.984Z,10.60
2022-12-12T02:57:04.934Z,10.93
2022-12-12T02:59:34.582Z,10.93
2022-12-12T03:02:15.314Z,9.67
2022-12-12T03:05:07.738Z,9.67
2022-12-12T03:07:50.447Z,8.70
2022-12-12T03:10:25.596Z,10.13
2022-12-12T03:13:00.490Z,8.77
2022-12-12T03:15:32.539Z,10.70
2022-12-12T03:18:10.414Z,11.53
2022-12-12T03:20:40.006Z,11.07
2022-12-12T03:23:10.194Z,10.83
2022-12-12T03:25:41.437Z,11.13
2022-12-12T03:28:11.976Z,9.10
2022-12-12T03:30:42.050Z,10.63
2022-12-12T03:33:16.527Z,10.10
2022-12-12T03:35:47.759Z,10.37
2022-12-12T03:38:16.366Z,8.93
2022-12-12T03:40:46.823Z,9.90
2022-12-12T03:43:16.455Z,11.17
2022-12-12T03:45:47.371Z,11.53
2022-12-12T03:48:18.197Z,11.30
2022-12-12T03:50:47.508Z,9.63
2022-12-12T03:53:18.792Z,10.43
2022-12-12T03:55:48.795Z,9.93
2022-12-12T03:58:20.352Z,9.23
2022-12-12T04:00:49.870Z,10.25
2022-12-12T04:03:22.943Z,9.67
2022-12-12T04:06:20.241Z,10.40
2022-12-12T04:09:02.424Z,10.37
2022-12-12T04:11:51.621Z,8.67
2022-12-12T04:14:23.906Z,9.17
2022-12-12T04:17:00.839Z,10.83
2022-12-12T04:19:50.105Z,10.53
2022-12-12T04:22:38.555Z,8.82
2022-12-12T04:25:08.774Z,11.03
2022-12-12T04:27:38.691Z,10.93
2022-12-12T04:30:07.584Z,9.88
2022-12-12T04:32:37.542Z,11.27
2022-12-12T04:35:09.078Z,12.43
2022-12-12T04:37:40.020Z,10.83
2022-12-12T04:40:10.221Z,8.83
2022-12-12T04:42:40.342Z,11.67
2022-12-12T04:45:11.997Z,13.10
2022-12-12T04:47:40.824Z,12.30
2022-12-12T04:50:11.764Z,10.27
2022-12-12T04:52:40.852Z,9.43
2022-12-12T04:55:11.299Z,10.18
2022-12-12T04:57:42.942Z,9.87
2022-12-12T05:00:12.143Z,9.00
2022-12-12T05:02:42.310Z,10.38
2022-12-12T05:05:13.504Z,11.03
2022-12-12T05:07:43.058Z,8.82
2022-12-12T05:10:13.163Z,11.05
2022-12-12T05:12:42.012Z,10.70
2022-12-12T05:15:10.596Z,12.03
2022-12-12T05:17:42.119Z,11.05
2022-12-12T05:20:11.831Z,9.48
2022-12-12T05:22:39.818Z,10.50
2022-12-12T05:25:08.440Z,9.63
2022-12-12T05:27:36.625Z,11.37
2022-12-12T05:30:05.179Z,11.27
2022-12-12T05:32:33.093Z,11.05
2022-12-12T05:35:01.094Z,10.98
2022-12-12T05:37:30.669Z,10.60
2022-12-12T05:39:58.828Z,10.63
2022-12-12T05:42:27.209Z,11.30
2022-12-12T05:44:55.174Z,12.07
2022-12-12T05:47:23.148Z,13.20
2022-12-12T05:49:51.148Z,10.40
2022-12-12T05:52:19.104Z,11.18
2022-12-12T05:54:48.850Z,11.43
2022-12-12T05:57:17.470Z,11.52
2022-12-12T05:59:45.818Z,11.88
2022-12-12T06:02:14.182Z,11.63
2022-12-12T06:04:42.418Z,9.82
2022-12-12T06:07:10.879Z,11.70
2022-12-12T06:09:38.974Z,12.20
2022-12-12T06:12:08.711Z,11.35
2022-12-12T06:14:36.706Z,11.90
2022-12-12T06:17:04.966Z,10.20
2022-12-12T06:19:32.945Z,12.57
2022-12-12T06:22:00.932Z,10.85
2022-12-12T06:24:28.896Z,11.83
2022-12-12T06:26:56.813Z,11.57
2022-12-12T06:29:26.375Z,12.00
2022-12-12T06:31:54.421Z,12.13
2022-12-12T06:34:22.426Z,11.15
2022-12-12T06:36:50.395Z,13.53
2022-12-12T06:39:18.906Z,12.38
2022-12-12T06:41:47.140Z,11.68
2022-12-12T06:44:15.204Z,12.27
2022-12-12T06:46:44.794Z,11.30
2022-12-12T06:49:12.994Z,11.70
2022-12-12T06:51:44.589Z,12.27
2022-12-12T06:54:12.929Z,12.32
2022-12-12T06:56:46.293Z,11.65
2022-12-12T06:59:16.660Z,10.88
2022-12-12T07:01:46.974Z,12.10
2022-12-12T07:04:15.475Z,14.75
2022-12-12T07:06:43.646Z,13.07
2022-12-12T07:09:12.254Z,13.80
2022-12-12T07:11:40.730Z,11.98
2022-12-12T07:14:08.672Z,13.07
2022-12-12T07:16:36.672Z,12.77
2022-12-12T07:19:06.293Z,12.20
2022-12-12T07:21:34.223Z,12.20
2022-12-12T07:24:02.170Z,14.50
2022-12-12T07:26:30.120Z,14.53
2022-12-12T07:28:58.092Z,15.87
2022-12-12T07:31:26.703Z,13.77
2022-12-12T07:33:55.643Z,12.40
2022-12-12T07:36:25.117Z,13.93
2022-12-12T07:38:53.420Z,12.77
2022-12-12T07:41:21.756Z,14.27
2022-12-12T07:43:51.144Z,15.80
2022-12-12T07:46:21.456Z,13.50
2022-12-12T07:48:49.460Z,12.53
2022-12-12T07:51:17.416Z,12.13
2022-12-12T07:53:47.021Z,12.27
2022-12-12T07:56:16.369Z,13.17
2022-12-12T07:58:44.388Z,12.37
2022-12-12T08:01:14.874Z,14.00
2022-12-12T08:03:43.478Z,12.70
2022-12-12T08:06:11.482Z,11.97
2022-12-12T08:08:39.781Z,11.73
2022-12-12T08:11:10.292Z,11.57
2022-12-12T08:13:39.935Z,11.00
2022-12-12T08:16:08.810Z,13.50
2022-12-12T08:18:36.880Z,13.00
2022-12-12T08:21:08.226Z,12.87
2022-12-12T08:23:39.611Z,11.63
2022-12-12T08:26:09.552Z,14.23
2022-12-12T08:28:39.437Z,16.40
2022-12-12T08:31:07.453Z,13.53
2022-12-12T08:33:35.509Z,13.93
2022-12-12T08:36:12.007Z,13.83
2022-12-12T08:38:40.012Z,12.00
2022-12-12T08:41:07.967Z,12.53
2022-12-12T08:43:36.058Z,13.27
2022-12-12T08:46:06.012Z,13.07
2022-12-12T08:48:34.106Z,13.73
2022-12-12T08:51:02.245Z,13.67
2022-12-12T08:53:30.588Z,12.43
2022-12-12T08:55:58.591Z,11.00
2022-12-12T08:58:26.546Z,12.13
2022-12-12T09:00:54.573Z,11.93
2022-12-12T09:03:29.258Z,13.07
2022-12-12T09:05:57.775Z,13.60
2022-12-12T09:08:25.941Z,11.70
2022-12-12T09:10:53.911Z,12.33
2022-12-12T09:13:21.861Z,12.27
2022-12-12T09:15:51.716Z,13.50
2022-12-12T09:18:19.761Z,12.73
2022-12-12T09:20:51.289Z,12.37
2022-12-12T09:23:19.366Z,12.40
2022-12-12T09:25:47.692Z,11.70
2022-12-12T09:28:16.276Z,13.45
2022-12-12T09:30:44.848Z,11.27
2022-12-12T09:33:13.459Z,14.23
2022-12-12T09:35:41.438Z,14.33
2022-12-12T09:38:14.694Z,12.53
2022-12-12T09:40:47.555Z,12.23
2022-12-12T09:43:17.379Z,12.33
2022-12-12T09:45:45.504Z,11.33
2022-12-12T09:48:17.721Z,12.60
2022-12-12T09:50:47.735Z,12.17
2022-12-12T09:53:17.859Z,13.70
2022-12-12T09:55:49.051Z,14.47
2022-12-12T09:58:20.124Z,15.37
2022-12-12T10:00:49.921Z,13.50
2022-12-12T10:03:24.303Z,13.23
2022-12-12T10:06:13.512Z,14.33
2022-12-12T10:08:49.327Z,12.57
2022-12-12T10:11:39.117Z,13.37
2022-12-12T10:14:12.871Z,12.77
2022-12-12T10:16:41.621Z,12.90
2022-12-12T10:19:11.473Z,14.07
2022-12-12T10:21:41.158Z,14.93
2022-12-12T10:24:15.470Z,13.13
2022-12-12T10:26:44.168Z,13.93
2022-12-12T10:29:13.758Z,13.60
2022-12-12T10:31:45.587Z,14.37
2022-12-12T10:34:18.871Z,14.20
2022-12-12T10:36:56.543Z,15.83
2022-12-12T10:39:30.298Z,13.90
2022-12-12T10:42:01.345Z,13.80
2022-12-12T10:44:45.565Z,12.80
2022-12-12T10:47:15.123Z,14.30
2022-12-12T10:49:43.442Z,14.53
2022-12-12T10:52:15.803Z,13.33
2022-12-12T10:54:46.407Z,14.37
2022-12-12T10:57:20.143Z,13.47
2022-12-12T10:59:49.878Z,14.30
2022-12-12T11:02:26.624Z,14.63
2022-12-12T11:05:09.659Z,12.67
2022-12-12T11:07:38.647Z,14.47
2022-12-12T11:10:21.576Z,13.23
2022-12-12T11:12:56.022Z,13.20
2022-12-12T11:15:28.863Z,13.90
2022-12-12T11:18:01.262Z,12.80
2022-12-12T11:20:33.895Z,13.67
2022-12-12T11:23:02.035Z,13.87
2022-12-12T11:25:32.180Z,13.17
2022-12-12T11:28:06.335Z,13.13
2022-12-12T11:30:36.217Z,13.50
2022-12-12T11:33:05.153Z,13.03
2022-12-12T11:35:35.382Z,12.10
2022-12-12T11:38:04.478Z,15.20
2022-12-12T11:40:35.299Z,14.93
2022-12-12T11:43:19.644Z,13.33
2022-12-12T11:45:59.219Z,13.93
2022-12-12T11:48:44.804Z,13.67
2022-12-12T11:51:12.995Z,15.60
2022-12-12T11:53:41.966Z,14.93
2022-12-12T11:56:17.669Z,14.47
2022-12-12T11:58:47.365Z,14.37
2022-12-12T12:01:20.546Z,14.70
2022-12-12T12:03:56.288Z,13.17
2022-12-12T12:06:30.674Z,13.03
2022-12-12T12:09:07.351Z,11.13
2022-12-12T12:11:41.041Z,13.63
2022-12-12T12:14:15.904Z,14.00
2022-12-12T12:16:47.345Z,14.03
2022-12-12T12:19:19.061Z,13.53
2022-12-12T12:21:53.837Z,14.53
2022-12-12T12:24:38.027Z,13.93
2022-12-12T12:27:12.927Z,14.30
2022-12-12T12:29:50.159Z,14.67
2022-12-12T12:32:22.979Z,14.20
2022-12-12T12:34:57.349Z,14.53
2022-12-12T12:37:32.378Z,13.83
2022-12-12T12:40:05.432Z,15.10
2022-12-12T12:42:46.222Z,14.47
2022-12-12T12:45:19.760Z,14.40
2022-12-12T12:47:52.432Z,14.13
2022-12-12T12:50:22.998Z,14.03
2022-12-12T12:52:55.049Z,13.90
2022-12-12T12:55:25.057Z,13.40
2022-12-12T12:57:54.694Z,13.27
2022-12-12T13:00:23.880Z,13.17
2022-12-12T13:02:55.465Z,15.47
2022-12-12T13:05:25.111Z,13.27
2022-12-12T13:07:56.273Z,15.13
2022-12-12T13:10:26.019Z,14.27
2022-12-12T13:12:57.332Z,13.43
2022-12-12T13:15:27.416Z,15.43
2022-12-12T13:17:59.029Z,13.50
2022-12-12T13:20:27.609Z,15.37
2022-12-12T13:23:07.773Z,15.47
2022-12-12T13:25:39.282Z,14.93
2022-12-12T13:28:12.684Z,14.17
2022-12-12T13:30:58.105Z,13.70
2022-12-12T13:33:34.049Z,13.73
2022-12-12T13:36:07.392Z,15.23
2022-12-12T13:38:35.987Z,14.57
2022-12-12T13:41:06.489Z,13.57
2022-12-12T13:43:44.117Z,13.23
2022-12-12T13:46:30.884Z,14.33
2022-12-12T13:49:00.071Z,13.63
2022-12-12T13:51:35.868Z,14.10
2022-12-12T13:54:36.980Z,13.13
2022-12-12T13:57:11.892Z,14.83
2022-12-12T14:00:13.105Z,14.03
2022-12-12T14:02:45.499Z,13.23
2022-12-12T14:05:14.989Z,12.63
2022-12-12T14:07:48.891Z,14.50
2022-12-12T14:10:20.233Z,12.50
2022-12-12T14:12:48.585Z,13.67
2022-12-12T14:15:20.905Z,13.80
2022-12-12T14:17:54.838Z,14.57
2022-12-12T14:20:28.221Z,12.37
2022-12-12T14:23:11.494Z,14.10
2022-12-12T14:25:40.126Z,15.10
2022-12-12T14:28:19.466Z,13.23
2022-12-12T14:30:49.724Z,14.47
2022-12-12T14:33:36.189Z,13.33
2022-12-12T14:36:10.153Z,15.27
2022-12-12T14:38:41.401Z,14.23
2022-12-12T14:41:11.711Z,13.83
2022-12-12T14:43:44.460Z,13.83
2022-12-12T14:46:15.572Z,13.63
2022-12-12T14:48:44.109Z,14.23
2022-12-12T14:51:17.911Z,12.10
2022-12-12T14:53:48.281Z,13.87
2022-12-12T14:56:17.654Z,13.37
2022-12-12T14:58:47.173Z,13.73
2022-12-12T15:01:16.930Z,14.23
2022-12-12T15:03:46.748Z,14.30
2022-12-12T15:06:32.562Z,16.50
2022-12-12T15:09:09.013Z,13.90
2022-12-12T15:11:37.179Z,13.67
2022-12-12T15:14:05.453Z,14.53
2022-12-12T15:16:37.753Z,14.70
2022-12-12T15:19:05.942Z,13.47
2022-12-12T15:21:35.441Z,15.87
2022-12-12T15:24:03.500Z,12.60
2022-12-12T15:26:31.574Z,14.87
2022-12-12T15:29:00.075Z,13.10
2022-12-12T15:31:28.325Z,14.20
2022-12-12T15:33:56.526Z,14.57
2022-12-12T15:36:26.718Z,12.63
2022-12-12T15:39:08.144Z,13.97
2022-12-12T15:41:36.754Z,14.23
2022-12-12T15:44:05.129Z,14.23
2022-12-12T15:46:33.377Z,14.03
2022-12-12T15:49:01.365Z,13.93
2022-12-12T15:51:30.417Z,14.70
2022-12-12T15:53:58.425Z,13.60
2022-12-12T15:56:31.877Z,14.40
2022-12-12T15:59:01.819Z,13.00
2022-12-12T16:01:31.029Z,13.07
2022-12-12T16:04:00.334Z,14.40
2022-12-12T16:06:30.060Z,13.20
2022-12-12T16:09:02.453Z,12.97
2022-12-12T16:11:38.593Z,13.57
2022-12-12T16:14:07.044Z,13.70
2022-12-12T16:16:36.498Z,13.67
2022-12-12T16:19:05.170Z,13.13
2022-12-12T16:21:34.600Z,13.40
2022-12-12T16:24:10.937Z,13.57
2022-12-12T16:26:40.313Z,13.37
2022-12-12T16:29:08.486Z,14.87
2022-12-12T16:31:36.664Z,14.03
2022-12-12T16:34:05.382Z,12.93
2022-12-12T16:36:39.940Z,12.17
2022-12-12T16:39:10.993Z,15.00
2022-12-12T16:41:40.960Z,13.57
2022-12-12T16:44:09.275Z,13.87
2022-12-12T16:46:37.395Z,14.67
2022-12-12T16:49:08.313Z,14.00
2022-12-12T16:51:41.183Z,13.50
2022-12-12T16:54:13.079Z,13.70
2022-12-12T16:56:42.634Z,14.40
2022-12-12T16:59:10.763Z,13.83
2022-12-12T17:01:39.119Z,15.30
2022-12-12T17:04:08.406Z,14.47
2022-12-12T17:06:36.375Z,12.53
2022-12-12T17:09:04.388Z,15.37
2022-12-12T17:11:32.340Z,15.07
2022-12-12T17:14:01.745Z,13.37
2022-12-12T17:16:29.763Z,14.90
2022-12-12T17:18:58.599Z,14.97
2022-12-12T17:21:26.558Z,14.80
2022-12-12T17:23:54.582Z,14.43
2022-12-12T17:26:22.544Z,15.27
2022-12-12T17:28:50.445Z,14.00
2022-12-12T17:31:19.876Z,15.10
2022-12-12T17:33:51.048Z,13.37
2022-12-12T17:36:20.115Z,12.63
2022-12-12T17:38:48.318Z,14.67
2022-12-12T17:41:16.425Z,15.63
2022-12-12T17:43:44.416Z,13.67
2022-12-12T17:46:14.683Z,15.10
2022-12-12T17:48:46.082Z,16.00
2022-12-12T17:51:14.818Z,14.63
2022-12-12T17:53:42.793Z,14.10
2022-12-12T17:56:12.030Z,12.87
2022-12-12T17:58:41.156Z,16.40
2022-12-12T18:01:12.603Z,14.93
2022-12-12T18:03:40.664Z,14.63
2022-12-12T18:06:10.763Z,14.93
2022-12-12T18:08:39.120Z,14.10
2022-12-12T18:11:11.745Z,15.17
2022-12-12T18:13:40.223Z,14.43
2022-12-12T18:16:09.556Z,15.87
2022-12-12T18:18:38.115Z,12.70
2022-12-12T18:21:06.853Z,14.47
2022-12-12T18:23:36.507Z,13.57
2022-12-12T18:26:05.335Z,14.73
2022-12-12T18:28:33.458Z,12.57
2022-12-12T18:31:01.414Z,14.37
2022-12-12T18:33:29.419Z,14.23
2022-12-12T18:36:04.106Z,15.93
2022-12-12T18:38:32.286Z,14.43
2022-12-12T18:41:01.921Z,14.37
2022-12-12T18:43:30.353Z,13.00
2022-12-12T18:46:01.954Z,14.20
2022-12-12T18:48:30.011Z,12.40
2022-12-12T18:51:04.680Z,12.77
2022-12-12T18:53:32.750Z,16.03
2022-12-12T18:56:02.548Z,13.50
2022-12-12T18:58:30.477Z,14.43
2022-12-12T19:01:03.850Z,14.53
2022-12-12T19:03:31.933Z,14.57
2022-12-12T19:05:59.854Z,13.80
2022-12-12T19:08:28.138Z,14.00
2022-12-12T19:10:56.204Z,14.03
2022-12-12T19:13:25.621Z,14.60
2022-12-12T19:15:53.773Z,15.77
2022-12-12T19:18:22.062Z,16.13
2022-12-12T19:20:50.475Z,15.00
2022-12-12T19:23:18.454Z,13.30
2022-12-12T19:25:46.613Z,13.87
2022-12-12T19:28:14.860Z,15.07
2022-12-12T19:30:44.482Z,13.50
2022-12-12T19:33:12.754Z,12.90
2022-12-12T19:35:40.999Z,13.67
2022-12-12T19:38:09.301Z,15.30
2022-12-12T19:40:37.581Z,15.17
2022-12-12T19:43:06.023Z,14.60
2022-12-12T19:45:34.166Z,15.47
2022-12-12T19:48:03.739Z,16.00
2022-12-12T19:50:31.729Z,14.97
2022-12-12T19:52:59.750Z,15.50
2022-12-12T19:55:27.963Z,15.13
2022-12-12T19:57:55.951Z,16.40
2022-12-12T20:00:23.964Z,13.80
2022-12-12T20:02:52.097Z,16.40
2022-12-12T20:05:21.573Z,16.47
2022-12-12T20:07:49.568Z,15.60
2022-12-12T20:10:17.656Z,16.30
2022-12-12T20:12:56.118Z,14.77
2022-12-12T20:15:26.485Z,19.07
2022-12-12T20:17:54.427Z,17.57
2022-12-12T20:20:23.838Z,17.17
2022-12-12T20:22:51.822Z,20.80
2022-12-12T20:25:19.835Z,18.47
2022-12-12T20:27:47.733Z,19.63
2022-12-12T20:30:15.956Z,17.17
2022-12-12T20:32:44.085Z,16.80
2022-12-12T20:35:12.433Z,15.13
2022-12-12T20:37:41.945Z,14.20
2022-12-12T20:40:10.748Z,15.00
2022-12-12T20:42:38.662Z,13.27
2022-12-12T20:45:07.179Z,15.60
2022-12-12T20:47:35.361Z,15.00
2022-12-12T20:50:03.406Z,14.87
2022-12-12T20:52:31.561Z,16.97
2022-12-12T20:55:00.951Z,15.53
2022-12-12T20:57:28.997Z,16.17
2022-12-12T20:59:56.964Z,15.03
2022-12-12T21:02:29.951Z,15.27
2022-12-12T21:04:58.411Z,14.17
2022-12-12T21:07:26.538Z,14.67
2022-12-12T21:09:54.494Z,15.43
2022-12-12T21:12:23.986Z,13.70
2022-12-12T21:14:51.944Z,14.37
2022-12-12T21:17:20.019Z,15.03
2022-12-12T21:19:47.933Z,14.13
2022-12-12T21:22:15.858Z,14.30
2022-12-12T21:24:43.844Z,15.20
2022-12-12T21:27:11.802Z,13.97
2022-12-12T21:29:41.189Z,15.53
2022-12-12T21:32:09.157Z,15.17
2022-12-12T21:34:40.110Z,16.73
2022-12-12T21:37:08.081Z,16.07
2022-12-12T21:39:35.986Z,13.67
2022-12-12T21:42:03.906Z,13.83
2022-12-12T21:44:31.917Z,14.77
2022-12-12T21:47:01.291Z,13.03
2022-12-12T21:49:31.140Z,12.83
2022-12-12T21:52:00.408Z,12.37
2022-12-12T21:54:29.338Z,14.63
2022-12-12T21:56:57.669Z,14.03
2022-12-12T21:59:25.967Z,15.33
2022-12-12T22:01:55.597Z,14.27
2022-12-12T22:04:25.539Z,12.80
2022-12-12T22:06:53.642Z,14.50
2022-12-12T22:09:21.596Z,12.27
2022-12-12T22:11:50.790Z,12.07
2022-12-12T22:14:21.135Z,13.77
2022-12-12T22:16:49.218Z,14.23
2022-12-12T22:19:17.656Z,12.97
2022-12-12T22:21:48.128Z,14.53
2022-12-12T22:24:16.218Z,12.90
2022-12-12T22:26:45.205Z,12.50
2022-12-12T22:29:14.070Z,12.23
2022-12-12T22:31:42.939Z,11.90
2022-12-12T22:34:12.781Z,12.70
2022-12-12T22:36:41.293Z,13.67
2022-12-12T22:39:13.358Z,14.80
2022-12-12T22:41:41.320Z,13.53
2022-12-12T22:44:09.337Z,12.00
2022-12-12T22:46:43.504Z,13.33
2022-12-12T22:49:12.373Z,12.57
2022-12-12T22:51:40.419Z,13.13
2022-12-12T22:54:08.339Z,11.80
2022-12-12T22:56:38.508Z,12.97
2022-12-12T22:59:07.391Z,12.00
2022-12-12T23:01:35.668Z,13.53
2022-12-12T23:04:03.698Z,13.17
2022-12-12T23:06:33.233Z,14.47
2022-12-12T23:09:02.114Z,11.60
2022-12-12T23:11:31.023Z,12.03
2022-12-12T23:14:03.276Z,13.63
2022-12-12T23:16:31.950Z,14.87
2022-12-12T23:19:00.105Z,12.50
2022-12-12T23:21:28.548Z,12.30
2022-12-12T23:23:56.906Z,12.83
2022-12-12T23:26:26.161Z,14.37
2022-12-12T23:28:54.312Z,12.70
2022-12-12T23:31:24.652Z,14.07
2022-12-12T23:33:54.081Z,13.10
2022-12-12T23:36:22.302Z,13.47
2022-12-12T23:38:50.340Z,12.30
2022-12-12T23:41:18.483Z,12.77
2022-12-12T23:43:46.473Z,14.17
2022-12-12T23:46:28.546Z,13.47
2022-12-12T23:48:59.237Z,14.63
2022-12-12T23:51:27.723Z,13.87
2022-12-12T23:53:57.769Z,13.73
2022-12-12T23:56:26.060Z,13.93
2022-12-12T23:58:54.261Z,15.17
